Time;durP1;ratioP1;P1;durP2;ratioP2;P2;SDS_P1;SDS_P2;PMS_P1;PMS_P2;Temp;Humidity;BMP_temperature;BMP_pressure;BME280_temperature;BME280_humidity;BME280_pressure;Samples;Min_cycle;Max_cycle;Signal;HPM_P1;HPM_P2
2023/04/24 00:01:07;;;;;;;18.83;17.93;;;;;;;;;;5020991;28;20781;-80
2023/04/24 00:03:34;;;;;;;18.83;18.03;;;;;;;;;;5021466;28;20468;-80
2023/04/24 00:06:02;;;;;;;19.00;18.10;;;;;;;;;;5020578;28;20449;-80
2023/04/24 00:08:29;;;;;;;19.30;18.40;;;;;;;;;;5020251;28;20488;-80
2023/04/24 00:10:57;;;;;;;17.77;16.97;;;;;;;;;;5020444;28;20487;-80
2023/04/24 00:13:24;;;;;;;17.93;17.03;;;;;;;;;;5021514;28;20456;-80
2023/04/24 00:15:51;;;;;;;18.10;17.23;;;;;;;;;;5019951;28;20460;-80
2023/04/24 00:18:18;;;;;;;18.40;17.50;;;;;;;;;;5020289;28;20508;-79
2023/04/24 00:20:46;;;;;;;17.50;16.70;;;;;;;;;;5020756;28;20870;-80
2023/04/24 00:23:13;;;;;;;17.77;16.97;;;;;;;;;;5019555;28;20921;-80
2023/04/24 00:25:40;;;;;;;18.07;17.27;;;;;;;;;;5019918;28;20439;-80
2023/04/24 00:28:09;;;;;;;18.20;17.40;;;;;;;;;;5020317;28;20537;-81
2023/04/24 00:30:36;;;;;;;18.97;17.87;;;;;;;;;;5020065;28;20489;-81
2023/04/24 00:33:03;;;;;;;18.83;17.93;;;;;;;;;;5020428;28;20856;-80
2023/04/24 00:35:30;;;;;;;18.00;17.20;;;;;;;;;;5020265;28;20517;-80
2023/04/24 00:37:57;;;;;;;18.80;17.60;;;;;;;;;;5019896;28;20470;-79
2023/04/24 00:40:24;;;;;;;19.07;18.07;;;;;;;;;;5019926;28;20472;-80
2023/04/24 00:42:51;;;;;;;19.23;18.33;;;;;;;;;;5020274;28;20483;-80
2023/04/24 00:45:19;;;;;;;18.87;18.00;;;;;;;;;;5020032;28;20836;-80
2023/04/24 00:47:47;;;;;;;21.53;20.37;;;;;;;;;;5019536;28;20432;-80
2023/04/24 00:50:16;;;;;;;18.43;17.53;;;;;;;;;;5019043;28;20488;-80
2023/04/24 00:52:43;;;;;;;18.73;17.83;;;;;;;;;;5020352;28;20488;-80
2023/04/24 00:55:10;;;;;;;17.83;17.03;;;;;;;;;;5019984;28;20997;-80
2023/04/24 00:57:37;;;;;;;17.90;17.10;;;;;;;;;;5019846;28;20467;-80
2023/04/24 01:00:06;;;;;;;18.60;17.70;;;;;;;;;;5019247;28;20467;-80
2023/04/24 01:02:34;;;;;;;18.57;17.67;;;;;;;;;;5019989;28;20433;-79
2023/04/24 01:05:02;;;;;;;18.00;17.00;;;;;;;;;;5020045;28;20429;-80
2023/04/24 01:07:29;;;;;;;18.30;17.20;;;;;;;;;;5022377;28;20444;-80
2023/04/24 01:09:56;;;;;;;18.07;17.17;;;;;;;;;;5026165;28;20438;-81
2023/04/24 01:12:23;;;;;;;18.60;17.60;;;;;;;;;;5027533;28;20920;-81
2023/04/24 01:14:50;;;;;;;17.63;16.73;;;;;;;;;;5027867;28;20431;-81
2023/04/24 01:17:17;;;;;;;17.57;16.77;;;;;;;;;;5026836;28;20448;-80
2023/04/24 01:19:45;;;;;;;17.60;16.80;;;;;;;;;;5026820;28;20549;-80
2023/04/24 01:22:14;;;;;;;17.60;16.70;;;;;;;;;;5026860;28;20431;-80
2023/04/24 01:24:41;;;;;;;17.00;16.20;;;;;;;;;;5026817;28;20485;-81
2023/04/24 01:27:09;;;;;;;17.77;16.77;;;;;;;;;;5025761;28;20448;-80
2023/04/24 01:29:36;;;;;;;18.10;17.17;;;;;;;;;;5024880;28;20558;-81
2023/04/24 01:32:04;;;;;;;17.30;16.50;;;;;;;;;;5025215;28;20464;-79
2023/04/24 01:34:31;;;;;;;18.13;17.13;;;;;;;;;;5024567;28;20853;-80
2023/04/24 01:36:58;;;;;;;18.37;17.47;;;;;;;;;;5024132;28;20428;-80
2023/04/24 01:39:28;;;;;;;17.73;16.83;;;;;;;;;;5024314;28;20494;-80
2023/04/24 01:41:55;;;;;;;18.07;17.17;;;;;;;;;;5024263;28;20464;-80
2023/04/24 01:44:22;;;;;;;17.07;16.27;;;;;;;;;;5023458;28;20422;-80
2023/04/24 01:46:50;;;;;;;18.07;17.27;;;;;;;;;;5023009;28;20495;-80
2023/04/24 01:49:17;;;;;;;17.50;16.60;;;;;;;;;;5025621;28;20476;-80
2023/04/24 01:51:44;;;;;;;18.57;17.67;;;;;;;;;;5026775;28;20483;-79
2023/04/24 01:54:12;;;;;;;18.50;17.50;;;;;;;;;;5034916;28;20476;-80
2023/04/24 01:56:42;;;;;;;18.60;17.20;;;;;;;;;;5038236;28;20436;-80
2023/04/24 01:59:10;;;;;;;17.83;17.03;;;;;;;;;;5036949;28;20487;-80
2023/04/24 02:01:39;;;;;;;18.83;17.47;;;;;;;;;;5036093;28;20426;-80
2023/04/24 02:04:07;;;;;;;17.87;17.07;;;;;;;;;;5019071;28;20431;-80
2023/04/24 02:06:35;;;;;;;86.40;79.33;;;;;;;;;;5036756;28;20433;-80
2023/04/24 02:09:03;;;;;;;25.77;17.10;;;;;;;;;;5035682;28;20494;-81
2023/04/24 02:11:30;;;;;;;362.75;171.50;;;;;;;;;;5033668;28;20479;-81
2023/04/24 02:13:59;;;;;;;17.43;16.63;;;;;;;;;;5033343;28;20214;-80
2023/04/24 02:16:26;;;;;;;18.23;17.33;;;;;;;;;;5033280;28;20408;-81
2023/04/24 02:18:53;;;;;;;17.73;16.83;;;;;;;;;;5032976;28;20472;-80
2023/04/24 02:21:20;;;;;;;210.63;122.67;;;;;;;;;;5031924;28;20433;-81
2023/04/24 02:23:47;;;;;;;18.33;17.47;;;;;;;;;;5037139;28;20452;-80
2023/04/24 02:26:16;;;;;;;181.67;110.20;;;;;;;;;;5037714;28;20443;-80
2023/04/24 02:28:43;;;;;;;346.33;133.93;;;;;;;;;;5036235;28;20544;-80
2023/04/24 02:31:12;;;;;;;385.23;141.93;;;;;;;;;;5036044;28;20186;-81
2023/04/24 02:33:40;;;;;;;321.17;123.45;;;;;;;;;;5035793;28;20202;-80
2023/04/24 02:36:07;;;;;;;17.57;16.67;;;;;;;;;;5035244;28;20201;-80
2023/04/24 02:38:34;;;;;;;17.73;16.83;;;;;;;;;;5035754;28;20500;-80
2023/04/24 02:41:05;;;;;;;18.37;17.37;;;;;;;;;;5036411;28;20500;-81
2023/04/24 02:43:33;;;;;;;18.27;17.37;;;;;;;;;;5035839;28;20435;-80
2023/04/24 02:46:01;;;;;;;18.03;17.03;;;;;;;;;;5035589;28;20420;-80
2023/04/24 02:48:30;;;;;;;17.73;16.90;;;;;;;;;;5034985;28;20449;-80
2023/04/24 02:50:58;;;;;;;17.33;16.53;;;;;;;;;;5035858;28;20449;-81
2023/04/24 02:53:26;;;;;;;18.47;17.57;;;;;;;;;;5036375;28;20475;-81
2023/04/24 02:55:54;;;;;;;16.70;15.90;;;;;;;;;;5020243;28;20395;-81
2023/04/24 02:58:22;;;;;;;17.47;16.57;;;;;;;;;;5037412;28;20439;-82
2023/04/24 03:00:50;;;;;;;16.73;15.87;;;;;;;;;;5037716;28;20431;-81
2023/04/24 03:03:17;;;;;;;17.90;16.63;;;;;;;;;;5037647;28;20915;-80
2023/04/24 03:05:46;;;;;;;17.43;16.53;;;;;;;;;;5037094;28;20465;-81
2023/04/24 03:08:20;;;;;;;17.20;16.40;;;;;;;;;;5038388;28;20427;-81
2023/04/24 03:10:56;;;;;;;16.93;16.13;;;;;;;;;;5039175;28;20415;-81
2023/04/24 03:13:32;;;;;;;120.30;72.77;;;;;;;;;;5038869;28;20492;-81
2023/04/24 03:16:00;;;;;;;17.73;16.80;;;;;;;;;;5036895;28;20456;-80
2023/04/24 03:18:32;;;;;;;17.70;16.70;;;;;;;;;;5039040;28;20460;-80
2023/04/24 03:21:20;;;;;;;17.13;16.30;;;;;;;;;;5038694;28;20438;-81
2023/04/24 03:23:52;;;;;;;18.17;17.07;;;;;;;;;;5032122;28;20418;-81
2023/04/24 03:26:20;;;;;;;17.33;16.40;;;;;;;;;;5038121;28;20460;-81
2023/04/24 03:28:48;;;;;;;17.10;16.30;;;;;;;;;;5021640;28;20443;-80
2023/04/24 03:31:16;;;;;;;17.67;16.87;;;;;;;;;;5037616;28;20447;-81
2023/04/24 03:33:44;;;;;;;18.00;17.00;;;;;;;;;;5036955;28;20457;-81
2023/04/24 03:36:11;;;;;;;17.73;16.83;;;;;;;;;;5037950;28;20472;-81
2023/04/24 03:38:39;;;;;;;17.23;16.43;;;;;;;;;;5035626;28;20456;-81
2023/04/24 03:41:08;;;;;;;18.53;17.43;;;;;;;;;;5036895;28;20468;-81
2023/04/24 03:43:35;;;;;;;18.23;17.30;;;;;;;;;;5031520;28;20944;-80
2023/04/24 03:46:03;;;;;;;18.63;17.53;;;;;;;;;;5032836;28;20528;-80
2023/04/24 03:48:30;;;;;;;18.47;17.40;;;;;;;;;;5034942;28;20487;-81
2023/04/24 03:50:58;;;;;;;17.73;16.73;;;;;;;;;;5036256;28;20407;-81
2023/04/24 03:53:28;;;;;;;18.03;17.03;;;;;;;;;;5033392;28;20989;-82
2023/04/24 03:55:55;;;;;;;18.17;17.27;;;;;;;;;;5032314;28;20479;-81
2023/04/24 03:58:24;;;;;;;19.23;18.00;;;;;;;;;;5035207;28;20438;-81
2023/04/24 04:00:51;;;;;;;18.50;17.30;;;;;;;;;;5027282;28;20475;-81
2023/04/24 04:03:21;;;;;;;18.30;17.40;;;;;;;;;;5031225;28;20491;-81
2023/04/24 04:05:48;;;;;;;18.67;17.67;;;;;;;;;;5032000;28;20473;-81
2023/04/24 04:08:16;;;;;;;19.47;18.30;;;;;;;;;;5035329;28;20473;-81
2023/04/24 04:10:44;;;;;;;18.23;17.33;;;;;;;;;;5033052;28;20410;-81
2023/04/24 04:13:11;;;;;;;18.37;17.43;;;;;;;;;;5027621;28;20476;-81
2023/04/24 04:15:41;;;;;;;19.13;18.10;;;;;;;;;;5031477;28;20452;-81
2023/04/24 04:18:09;;;;;;;18.60;17.57;;;;;;;;;;5031874;28;20528;-81
2023/04/24 04:20:36;;;;;;;19.27;18.27;;;;;;;;;;5032237;28;20483;-79
2023/04/24 04:23:03;;;;;;;19.87;18.77;;;;;;;;;;5028733;28;20498;-79
2023/04/24 04:25:32;;;;;;;20.13;18.93;;;;;;;;;;5032891;28;20471;-79
2023/04/24 04:28:00;;;;;;;19.70;18.60;;;;;;;;;;5033926;28;20447;-79
2023/04/24 04:30:29;;;;;;;19.87;18.77;;;;;;;;;;5034405;28;20443;-79
2023/04/24 04:32:57;;;;;;;20.57;19.37;;;;;;;;;;5032405;28;20462;-79
2023/04/24 04:35:25;;;;;;;19.00;18.10;;;;;;;;;;5025383;28;20454;-79
2023/04/24 04:37:52;;;;;;;18.87;17.87;;;;;;;;;;5032943;28;20499;-79
2023/04/24 04:40:20;;;;;;;19.27;18.27;;;;;;;;;;5034305;28;20476;-79
2023/04/24 04:42:47;;;;;;;18.80;17.80;;;;;;;;;;5034650;28;20483;-78
2023/04/24 04:45:16;;;;;;;18.67;17.77;;;;;;;;;;5034147;28;20513;-79
2023/04/24 04:47:45;;;;;;;19.43;18.37;;;;;;;;;;5034747;28;20489;-78
2023/04/24 04:50:16;;;;;;;20.47;19.27;;;;;;;;;;5036916;28;20464;-79
2023/04/24 04:52:44;;;;;;;19.07;18.07;;;;;;;;;;5036590;28;20503;-78
2023/04/24 04:55:13;;;;;;;20.83;19.70;;;;;;;;;;5033508;28;20476;-78
2023/04/24 04:57:41;;;;;;;20.23;19.03;;;;;;;;;;5032206;28;20478;-79
2023/04/24 05:00:10;;;;;;;22.97;21.47;;;;;;;;;;5033023;28;20454;-79
2023/04/24 05:02:38;;;;;;;22.07;20.77;;;;;;;;;;5037224;28;20415;-79
2023/04/24 05:05:07;;;;;;;22.87;21.30;;;;;;;;;;5037516;28;20472;-80
2023/04/24 05:07:36;;;;;;;23.77;22.07;;;;;;;;;;5034432;28;20448;-79
2023/04/24 05:10:04;;;;;;;32.47;26.57;;;;;;;;;;5035453;28;20451;-79
2023/04/24 05:12:31;;;;;;;342.90;128.65;;;;;;;;;;5035074;28;20476;-79
2023/04/24 05:14:58;;;;;;;24.70;22.90;;;;;;;;;;5031357;28;20560;-78
2023/04/24 05:17:25;;;;;;;25.73;24.03;;;;;;;;;;5010264;28;20526;-79
2023/04/24 05:19:52;;;;;;;23.10;21.30;;;;;;;;;;5025310;28;20499;-79
2023/04/24 05:22:20;;;;;;;21.83;20.43;;;;;;;;;;5021105;28;20431;-78
2023/04/24 05:24:49;;;;;;;23.03;21.43;;;;;;;;;;5035820;28;20436;-77
2023/04/24 05:27:17;;;;;;;24.63;23.10;;;;;;;;;;5033223;28;20418;-79
2023/04/24 05:29:45;;;;;;;26.73;24.83;;;;;;;;;;5035608;28;20453;-79
2023/04/24 05:32:12;;;;;;;24.00;22.50;;;;;;;;;;5020376;28;20415;-78
2023/04/24 05:34:39;;;;;;;26.83;24.93;;;;;;;;;;5036903;28;20431;-79
2023/04/24 05:37:09;;;;;;;23.33;21.83;;;;;;;;;;5036786;28;20419;-79
2023/04/24 05:39:38;;;;;;;27.20;25.40;;;;;;;;;;5036898;28;20459;-79
2023/04/24 05:42:06;;;;;;;25.67;23.80;;;;;;;;;;5036427;28;20456;-79
2023/04/24 05:44:34;;;;;;;28.40;26.20;;;;;;;;;;5037141;28;20427;-78
2023/04/24 05:47:01;;;;;;;28.33;26.20;;;;;;;;;;5037774;28;20438;-79
2023/04/24 05:49:29;;;;;;;23.67;21.97;;;;;;;;;;5037127;28;20488;-77
2023/04/24 05:51:57;;;;;;;25.10;23.30;;;;;;;;;;5037105;28;20516;-78
2023/04/24 05:54:24;;;;;;;26.03;24.23;;;;;;;;;;5036565;28;20483;-77
2023/04/24 05:56:51;;;;;;;27.90;25.80;;;;;;;;;;5036915;28;20445;-80
2023/04/24 05:59:38;;;;;;;27.07;24.57;;;;;;;;;;5033256;28;20453;-80
2023/04/24 06:02:07;;;;;;;27.20;24.90;;;;;;;;;;5022006;28;20436;-77
2023/04/24 06:04:35;;;;;;;23.53;21.90;;;;;;;;;;5033423;28;20453;-80
2023/04/24 06:07:03;;;;;;;27.30;25.20;;;;;;;;;;5033280;28;20468;-77
2023/04/24 06:09:30;;;;;;;23.43;21.93;;;;;;;;;;5038532;28;20447;-77
2023/04/24 06:11:58;;;;;;;22.60;21.10;;;;;;;;;;5037658;28;20454;-78
2023/04/24 06:14:25;;;;;;;26.80;24.70;;;;;;;;;;5019975;28;20498;-78
2023/04/24 06:16:55;;;;;;;24.20;22.37;;;;;;;;;;5037233;28;20464;-78
2023/04/24 06:19:24;;;;;;;27.70;25.40;;;;;;;;;;5036980;28;20473;-80
2023/04/24 06:21:52;;;;;;;23.77;22.23;;;;;;;;;;5032940;28;20467;-79
2023/04/24 06:24:21;;;;;;;25.67;23.77;;;;;;;;;;5031357;28;20427;-77
2023/04/24 06:26:49;;;;;;;30.17;26.03;;;;;;;;;;5031302;28;20458;-77
2023/04/24 06:29:17;;;;;;;27.10;25.30;;;;;;;;;;5031080;28;20451;-77
2023/04/24 06:31:53;;;;;;;24.67;22.73;;;;;;;;;;5029968;28;20475;-77
2023/04/24 06:34:20;;;;;;;25.53;23.73;;;;;;;;;;5031406;28;20480;-77
2023/04/24 06:36:50;;;;;;;23.97;22.07;;;;;;;;;;5030449;28;20508;-77
2023/04/24 06:39:18;;;;;;;22.37;20.97;;;;;;;;;;5069180;23;20580;-76
2023/04/24 06:41:45;;;;;;;27.57;25.57;;;;;;;;;;5089901;28;20432;-76
2023/04/24 06:44:15;;;;;;;27.10;25.13;;;;;;;;;;5091384;28;20465;-78
2023/04/24 06:46:43;;;;;;;28.20;26.03;;;;;;;;;;5087489;28;20507;-76
2023/04/24 06:49:10;;;;;;;26.40;24.60;;;;;;;;;;5088854;28;20662;-77
2023/04/24 06:51:38;;;;;;;30.73;28.57;;;;;;;;;;5090234;28;20452;-77
2023/04/24 06:54:07;;;;;;;26.83;24.67;;;;;;;;;;5069900;28;20527;-77
2023/04/24 06:56:34;;;;;;;26.60;24.70;;;;;;;;;;5085649;28;20446;-77
2023/04/24 06:59:01;;;;;;;28.53;26.50;;;;;;;;;;5087968;28;20424;-77
2023/04/24 07:01:29;;;;;;;28.13;25.97;;;;;;;;;;5087213;28;20515;-76
2023/04/24 07:03:56;;;;;;;23.27;21.70;;;;;;;;;;5087219;28;20445;-76
2023/04/24 07:06:23;;;;;;;24.67;22.97;;;;;;;;;;5089583;28;20442;-76
2023/04/24 07:08:51;;;;;;;23.13;21.60;;;;;;;;;;5087860;28;20466;-77
2023/04/24 07:11:20;;;;;;;25.47;23.77;;;;;;;;;;5083441;28;20421;-77
2023/04/24 07:13:47;;;;;;;27.00;24.57;;;;;;;;;;5084090;28;20491;-77
2023/04/24 07:16:15;;;;;;;29.37;26.97;;;;;;;;;;5084782;28;20440;-77
2023/04/24 07:18:42;;;;;;;25.77;24.17;;;;;;;;;;5085834;28;20557;-77
2023/04/24 07:21:09;;;;;;;26.77;24.73;;;;;;;;;;5086729;28;20474;-77
2023/04/24 07:23:37;;;;;;;22.03;20.53;;;;;;;;;;5086577;28;20459;-77
2023/04/24 07:26:05;;;;;;;27.03;25.13;;;;;;;;;;5085862;28;20432;-77
2023/04/24 07:28:34;;;;;;;25.20;23.37;;;;;;;;;;5069014;28;20465;-77
2023/04/24 07:31:02;;;;;;;23.73;22.10;;;;;;;;;;5086906;28;20424;-77
2023/04/24 07:33:30;;;;;;;22.73;21.27;;;;;;;;;;5085100;28;20448;-77
2023/04/24 07:35:58;;;;;;;22.13;20.83;;;;;;;;;;5086531;28;20473;-82
2023/04/24 07:38:25;;;;;;;24.27;22.57;;;;;;;;;;5085967;28;20436;-85
2023/04/24 07:40:53;;;;;;;25.37;23.63;;;;;;;;;;5086412;28;20443;-77
2023/04/24 07:43:23;;;;;;;24.63;22.63;;;;;;;;;;5086519;28;20424;-76
2023/04/24 07:45:52;;;;;;;25.70;23.93;;;;;;;;;;5088531;28;20453;-83
2023/04/24 07:48:21;;;;;;;25.23;23.13;;;;;;;;;;5088859;28;20474;-80
2023/04/24 07:50:48;;;;;;;25.37;23.37;;;;;;;;;;5075555;28;20476;-80
2023/04/24 07:53:16;;;;;;;21.20;20.10;;;;;;;;;;5082626;28;20452;-80
2023/04/24 07:55:44;;;;;;;24.20;22.53;;;;;;;;;;5087690;28;20442;-80
2023/04/24 07:58:11;;;;;;;22.50;21.10;;;;;;;;;;5085354;28;20381;-79
2023/04/24 08:00:39;;;;;;;22.40;21.00;;;;;;;;;;5090820;28;20407;-81
2023/04/24 08:03:08;;;;;;;24.60;23.00;;;;;;;;;;5096201;28;20428;-79
2023/04/24 08:05:36;;;;;;;25.00;23.20;;;;;;;;;;5080698;28;20446;-79
2023/04/24 08:08:06;;;;;;;23.87;22.30;;;;;;;;;;5095123;28;20477;-89
2023/04/24 08:10:34;;;;;;;21.00;19.90;;;;;;;;;;5097176;28;20440;-84
2023/04/24 08:13:02;;;;;;;22.50;21.27;;;;;;;;;;5097406;28;20438;-86
2023/04/24 08:15:30;;;;;;;22.07;20.67;;;;;;;;;;5097627;28;20501;-87
2023/04/24 08:17:57;;;;;;;21.70;20.50;;;;;;;;;;5096331;28;20466;-86
2023/04/24 08:20:27;;;;;;;23.23;21.87;;;;;;;;;;5096320;28;20477;-87
2023/04/24 08:22:57;;;;;;;22.57;21.17;;;;;;;;;;5098037;28;20408;-84
2023/04/24 08:25:27;;;;;;;23.30;21.90;;;;;;;;;;5097125;28;20454;-87
2023/04/24 08:27:57;;;;;;;23.37;21.97;;;;;;;;;;5097586;28;20438;-85
2023/04/24 08:30:25;;;;;;;22.30;20.87;;;;;;;;;;5685380;22;20449;-79
2023/04/24 08:32:53;;;;;;;22.67;21.30;;;;;;;;;;5093034;28;20453;-79
2023/04/24 08:35:23;;;;;;;22.67;21.37;;;;;;;;;;5093251;28;20445;-81
2023/04/24 08:38:01;;;;;;;21.90;20.60;;;;;;;;;;5094491;28;20469;-88
2023/04/24 08:40:30;;;;;;;22.27;20.97;;;;;;;;;;5096124;28;20499;-89
2023/04/24 08:42:58;;;;;;;24.13;22.43;;;;;;;;;;5094654;28;20400;-78
2023/04/24 08:45:26;;;;;;;21.43;20.33;;;;;;;;;;5090797;28;20427;-79
2023/04/24 08:47:54;;;;;;;21.87;20.67;;;;;;;;;;5090002;28;20440;-79
2023/04/24 08:50:22;;;;;;;19.60;18.60;;;;;;;;;;5089638;28;20520;-79
2023/04/24 08:52:53;;;;;;;20.40;19.40;;;;;;;;;;5090333;28;20445;-83
2023/04/24 08:55:21;;;;;;;22.40;21.10;;;;;;;;;;5092196;28;20474;-80
2023/04/24 08:57:53;;;;;;;22.70;21.40;;;;;;;;;;5091044;28;20446;-77
2023/04/24 09:00:21;;;;;;;20.97;19.87;;;;;;;;;;5088936;28;20489;-77
2023/04/24 09:02:50;;;;;;;20.90;19.80;;;;;;;;;;5090551;28;20943;-77
2023/04/24 09:05:27;;;;;;;21.60;20.40;;;;;;;;;;5091555;28;20416;-79
2023/04/24 09:07:57;;;;;;;22.13;20.80;;;;;;;;;;5091927;28;20505;-77
2023/04/24 09:10:25;;;;;;;22.17;21.07;;;;;;;;;;5092538;28;20807;-78
2023/04/24 09:12:53;;;;;;;20.17;19.17;;;;;;;;;;5090406;28;20448;-78
2023/04/24 09:15:23;;;;;;;20.70;19.60;;;;;;;;;;5089643;28;20448;-78
2023/04/24 09:17:53;;;;;;;21.20;20.00;;;;;;;;;;5089737;28;20436;-78
2023/04/24 09:20:21;;;;;;;22.53;21.13;;;;;;;;;;5090598;28;20473;-77
2023/04/24 09:22:49;;;;;;;20.47;19.37;;;;;;;;;;5092238;28;20426;-80
2023/04/24 09:25:20;;;;;;;21.93;20.03;;;;;;;;;;5095529;28;20401;-79
2023/04/24 09:27:48;;;;;;;20.20;19.10;;;;;;;;;;5092502;28;20845;-77
2023/04/24 09:30:23;;;;;;;20.17;19.10;;;;;;;;;;5093299;28;20438;-79
2023/04/24 09:32:51;;;;;;;21.40;20.23;;;;;;;;;;5094331;28;20478;-78
2023/04/24 09:35:22;;;;;;;19.47;18.47;;;;;;;;;;5093864;28;20515;-76
2023/04/24 09:37:50;;;;;;;19.67;18.57;;;;;;;;;;5092585;28;20454;-77
2023/04/24 09:40:20;;;;;;;19.80;18.73;;;;;;;;;;5090802;28;20482;-76
2023/04/24 09:42:48;;;;;;;19.70;18.70;;;;;;;;;;5087164;28;20440;-77
2023/04/24 09:45:15;;;;;;;18.90;17.90;;;;;;;;;;5089299;28;20453;-77
2023/04/24 09:47:43;;;;;;;20.23;19.03;;;;;;;;;;5093060;28;20425;-79
2023/04/24 09:50:12;;;;;;;20.60;19.50;;;;;;;;;;5090780;28;20466;-76
2023/04/24 09:52:43;;;;;;;20.37;19.27;;;;;;;;;;5090567;28;20489;-79
2023/04/24 09:55:18;;;;;;;21.70;20.20;;;;;;;;;;5087832;28;20528;-79
2023/04/24 09:57:54;;;;;;;20.70;19.50;;;;;;;;;;5088648;28;20436;-76
2023/04/24 10:00:25;;;;;;;19.73;18.73;;;;;;;;;;5085822;28;20469;-76
2023/04/24 10:02:53;;;;;;;19.67;18.73;;;;;;;;;;5090028;28;20449;-77
2023/04/24 10:05:24;;;;;;;19.83;18.73;;;;;;;;;;5088786;28;20416;-77
2023/04/24 10:07:53;;;;;;;20.30;19.20;;;;;;;;;;5089237;28;20548;-77
2023/04/24 10:10:20;;;;;;;28.87;19.90;;;;;;;;;;5085874;28;20469;-77
2023/04/24 10:12:48;;;;;;;19.10;18.20;;;;;;;;;;5091354;28;20454;-78
2023/04/24 10:15:21;;;;;;;19.10;18.20;;;;;;;;;;5087388;28;20525;-77
2023/04/24 10:17:52;;;;;;;18.70;17.80;;;;;;;;;;5088373;28;20436;-77
2023/04/24 10:20:21;;;;;;;18.83;17.90;;;;;;;;;;5086273;28;20480;-77
2023/04/24 10:22:51;;;;;;;18.50;17.60;;;;;;;;;;5088421;28;20521;-77
2023/04/24 10:25:20;;;;;;;18.50;17.60;;;;;;;;;;5079232;28;20409;-77
2023/04/24 10:27:48;;;;;;;19.00;18.10;;;;;;;;;;5081004;28;20458;-79
2023/04/24 10:30:17;;;;;;;19.03;18.10;;;;;;;;;;5078762;28;20477;-78
2023/04/24 10:32:44;;;;;;;18.60;17.60;;;;;;;;;;5085180;28;20453;-76
2023/04/24 10:35:14;;;;;;;19.57;18.57;;;;;;;;;;5084913;28;20481;-81
2023/04/24 10:37:44;;;;;;;20.03;18.93;;;;;;;;;;5075908;28;20446;-77
2023/04/24 10:40:11;;;;;;;20.40;19.07;;;;;;;;;;5080902;28;20542;-77
2023/04/24 10:42:42;;;;;;;19.13;18.10;;;;;;;;;;5075581;28;20445;-80
2023/04/24 10:45:21;;;;;;;20.77;19.67;;;;;;;;;;5077738;28;20956;-79
2023/04/24 10:47:53;;;;;;;251.45;156.30;;;;;;;;;;5075368;28;20412;-77
2023/04/24 10:50:20;;;;;;;327.48;205.35;;;;;;;;;;5074592;28;20227;-78
2023/04/24 10:52:47;;;;;;;293.63;177.17;;;;;;;;;;5074804;28;20192;-78
2023/04/24 10:55:15;;;;;;;336.90;164.52;;;;;;;;;;5075407;28;20498;-77
2023/04/24 10:58:02;;;;;;;335.67;164.43;;;;;;;;;;5073966;28;20199;-77
2023/04/24 11:00:30;;;;;;;409.77;168.13;;;;;;;;;;5074387;28;20469;-76
2023/04/24 11:02:58;;;;;;;431.38;157.15;;;;;;;;;;5074410;28;20257;-77
2023/04/24 11:05:50;;;;;;;441.25;164.50;;;;;;;;;;5074394;28;20208;-78
2023/04/24 11:08:23;;;;;;;432.23;160.55;;;;;;;;;;5074397;28;20188;-77
2023/04/24 11:10:56;;;;;;;440.42;151.70;;;;;;;;;;5073437;28;20207;-77
2023/04/24 11:13:23;;;;;;;337.08;117.68;;;;;;;;;;5074026;28;20701;-78
2023/04/24 11:16:05;;;;;;;18.60;17.70;;;;;;;;;;5073797;28;20284;-77
2023/04/24 11:18:39;;;;;;;20.47;19.40;;;;;;;;;;5073381;28;20806;-78
2023/04/24 11:21:11;;;;;;;20.30;19.10;;;;;;;;;;5074061;28;20765;-76
2023/04/24 11:23:39;;;;;;;365.02;136.18;;;;;;;;;;5073782;28;20436;-77
2023/04/24 11:26:14;;;;;;;19.53;18.50;;;;;;;;;;5073191;28;20565;-77
2023/04/24 11:28:48;;;;;;;170.03;71.77;;;;;;;;;;5072975;28;20469;-76
2023/04/24 11:31:34;;;;;;;19.70;18.53;;;;;;;;;;5074611;28;20467;-77
2023/04/24 11:34:07;;;;;;;21.27;19.97;;;;;;;;;;5074305;28;20476;-77
2023/04/24 11:36:34;;;;;;;21.00;19.60;;;;;;;;;;5073955;28;20438;-77
2023/04/24 11:39:03;;;;;;;23.43;22.03;;;;;;;;;;5075396;28;20517;-77
2023/04/24 11:41:30;;;;;;;20.53;19.40;;;;;;;;;;5074706;28;20424;-77
2023/04/24 11:43:57;;;;;;;22.00;20.77;;;;;;;;;;5073750;28;20457;-77
2023/04/24 11:46:24;;;;;;;31.50;29.80;;;;;;;;;;5073559;28;20482;-78
2023/04/24 11:48:51;;;;;;;39.63;37.63;;;;;;;;;;5074318;28;21033;-78
2023/04/24 11:51:18;;;;;;;40.83;37.63;;;;;;;;;;5075841;28;20503;-78
2023/04/24 11:53:47;;;;;;;33.60;31.60;;;;;;;;;;5078153;28;20445;-77
2023/04/24 11:56:19;;;;;;;58.43;52.17;;;;;;;;;;5078597;28;20436;-78
2023/04/24 11:58:47;;;;;;;44.50;40.93;;;;;;;;;;5075609;28;20504;-84
2023/04/24 12:01:14;;;;;;;115.77;98.87;;;;;;;;;;5076693;28;20432;-78
2023/04/24 12:03:43;;;;;;;76.17;61.30;;;;;;;;;;5077182;28;20436;-79
2023/04/24 12:06:11;;;;;;;39.70;36.30;;;;;;;;;;5075929;28;20449;-78
2023/04/24 12:08:38;;;;;;;43.93;39.93;;;;;;;;;;5075630;28;20447;-78
2023/04/24 12:11:07;;;;;;;43.30;39.63;;;;;;;;;;5075033;28;20458;-78
2023/04/24 12:13:36;;;;;;;51.53;45.43;;;;;;;;;;5073863;28;20430;-78
2023/04/24 12:16:04;;;;;;;53.33;48.07;;;;;;;;;;5072627;28;20535;-78
2023/04/24 12:18:31;;;;;;;56.83;51.93;;;;;;;;;;5073010;28;20441;-78
2023/04/24 12:21:12;;;;;;;65.90;59.97;;;;;;;;;;5057971;28;20504;-79
2023/04/24 12:23:39;;;;;;;79.07;72.20;;;;;;;;;;5076966;28;20446;-81
2023/04/24 12:26:07;;;;;;;81.33;77.23;;;;;;;;;;5073149;28;20945;-78
2023/04/24 12:28:38;;;;;;;87.53;82.30;;;;;;;;;;5072101;28;20527;-77
2023/04/24 12:31:05;;;;;;;61.00;56.23;;;;;;;;;;5072702;28;21063;-78
2023/04/24 12:33:34;;;;;;;60.80;56.90;;;;;;;;;;5073331;28;20420;-77
2023/04/24 12:36:01;;;;;;;128.43;121.63;;;;;;;;;;5073569;28;20474;-78
2023/04/24 12:38:30;;;;;;;126.07;119.47;;;;;;;;;;5075037;28;20449;-78
2023/04/24 12:41:04;;;;;;;135.20;127.77;;;;;;;;;;5073798;28;20497;-78
2023/04/24 12:43:31;;;;;;;97.60;93.10;;;;;;;;;;5076192;28;20527;-78
2023/04/24 12:45:59;;;;;;;184.87;172.77;;;;;;;;;;5075313;28;20417;-78
2023/04/24 12:48:28;;;;;;;241.52;223.70;;;;;;;;;;5076196;28;20471;-78
2023/04/24 12:50:56;;;;;;;384.65;198.13;;;;;;;;;;5075925;28;20264;-79
2023/04/24 12:53:26;;;;;;;124.13;117.53;;;;;;;;;;5076424;28;20267;-78
2023/04/24 12:55:53;;;;;;;92.70;87.80;;;;;;;;;;5076720;28;20485;-79
2023/04/24 12:58:21;;;;;;;110.87;104.63;;;;;;;;;;5079312;28;20426;-79
2023/04/24 13:00:48;;;;;;;319.70;204.30;;;;;;;;;;5077873;28;20441;-79
2023/04/24 13:03:17;;;;;;;446.88;212.18;;;;;;;;;;5080713;28;20230;-80
2023/04/24 13:05:44;;;;;;;338.08;190.95;;;;;;;;;;5079749;28;20268;-78
2023/04/24 13:08:12;;;;;;;189.87;176.63;;;;;;;;;;5084044;28;20199;-79
2023/04/24 13:10:40;;;;;;;124.17;116.63;;;;;;;;;;5078557;28;20457;-80
2023/04/24 13:13:07;;;;;;;122.23;116.23;;;;;;;;;;5081064;28;20548;-78
2023/04/24 13:15:35;;;;;;;212.77;188.68;;;;;;;;;;5080411;28;20485;-80
2023/04/24 13:18:02;;;;;;;80.10;75.20;;;;;;;;;;5081424;28;20241;-78
2023/04/24 13:20:30;;;;;;;153.03;144.60;;;;;;;;;;5087346;28;20456;-78
2023/04/24 13:22:57;;;;;;;400.00;220.02;;;;;;;;;;5087440;28;20453;-79
2023/04/24 13:25:24;;;;;;;379.20;198.35;;;;;;;;;;5079135;28;20264;-79
2023/04/24 13:27:52;;;;;;;315.63;204.85;;;;;;;;;;5080811;28;20199;-79
2023/04/24 13:30:19;;;;;;;96.10;90.77;;;;;;;;;;5081257;28;20227;-79
2023/04/24 13:32:46;;;;;;;77.87;73.13;;;;;;;;;;5075920;28;20501;-79
2023/04/24 13:35:13;;;;;;;68.80;64.40;;;;;;;;;;5079240;28;20485;-78
2023/04/24 13:37:41;;;;;;;72.67;68.13;;;;;;;;;;5077206;28;21302;-78
2023/04/24 13:40:09;;;;;;;66.00;61.77;;;;;;;;;;5082496;28;20477;-80
2023/04/24 13:42:36;;;;;;;64.53;60.17;;;;;;;;;;5080656;28;20566;-79
2023/04/24 13:45:04;;;;;;;74.17;69.63;;;;;;;;;;5082091;28;21035;-79
2023/04/24 13:47:31;;;;;;;65.50;61.57;;;;;;;;;;5077818;28;20450;-78
2023/04/24 13:49:58;;;;;;;72.03;67.37;;;;;;;;;;5079539;28;20481;-80
2023/04/24 13:52:25;;;;;;;94.33;88.87;;;;;;;;;;5086335;28;20466;-76
2023/04/24 13:54:53;;;;;;;106.03;99.43;;;;;;;;;;5074906;28;21000;-77
2023/04/24 13:57:20;;;;;;;100.40;94.87;;;;;;;;;;5080703;28;20461;-77
2023/04/24 13:59:47;;;;;;;61.63;57.70;;;;;;;;;;5079028;28;20466;-76
2023/04/24 14:02:14;;;;;;;70.13;64.80;;;;;;;;;;5076368;28;20453;-76
2023/04/24 14:04:41;;;;;;;59.00;54.70;;;;;;;;;;5078253;28;20446;-76
2023/04/24 14:07:08;;;;;;;64.50;59.57;;;;;;;;;;5073492;28;20420;-77
2023/04/24 14:09:35;;;;;;;122.53;114.53;;;;;;;;;;5076506;28;20805;-75
2023/04/24 14:12:04;;;;;;;133.60;123.07;;;;;;;;;;5076457;28;20433;-76
2023/04/24 14:14:31;;;;;;;107.23;100.03;;;;;;;;;;5076191;28;20464;-76
2023/04/24 14:16:59;;;;;;;98.63;92.03;;;;;;;;;;5081061;28;20468;-76
2023/04/24 14:19:26;;;;;;;96.50;90.10;;;;;;;;;;5073469;28;20523;-76
2023/04/24 14:21:53;;;;;;;68.73;63.97;;;;;;;;;;5081127;28;20428;-79